createdAt,value
2019-05-15T00:00:34.386Z,1.90
2019-05-15T00:01:34.366Z,1.70
2019-05-15T00:02:34.347Z,1.70
2019-05-15T00:03:34.340Z,1.80
2019-05-15T00:04:34.345Z,1.70
2019-05-15T00:05:34.343Z,1.70
2019-05-15T00:06:34.304Z,2.10
2019-05-15T00:07:34.294Z,1.60
2019-05-15T00:08:34.281Z,1.80
2019-05-15T00:09:34.291Z,1.70
2019-05-15T00:10:34.277Z,1.60
2019-05-15T00:11:34.249Z,1.90
2019-05-15T00:12:34.262Z,1.60
2019-05-15T00:13:34.227Z,1.60
2019-05-15T00:14:34.220Z,1.60
2019-05-15T00:15:34.226Z,1.70
2019-05-15T00:16:34.210Z,1.90
2019-05-15T00:17:34.189Z,1.60
2019-05-15T00:18:34.170Z,1.90
2019-05-15T00:19:34.184Z,1.70
2019-05-15T00:20:34.192Z,1.80
2019-05-15T00:21:34.138Z,2.00
2019-05-15T00:22:34.128Z,1.80
2019-05-15T00:23:34.142Z,1.70
2019-05-15T00:24:34.113Z,1.70
2019-05-15T00:25:34.097Z,1.50
2019-05-15T00:26:34.098Z,1.80
2019-05-15T00:27:34.077Z,1.50
2019-05-15T00:28:34.071Z,1.70
2019-05-15T00:29:34.050Z,1.70
2019-05-15T00:30:34.055Z,2.20
2019-05-15T00:31:34.047Z,1.90
2019-05-15T00:32:34.028Z,1.60
2019-05-15T00:33:34.008Z,1.80
2019-05-15T00:34:33.994Z,1.80
2019-05-15T00:35:33.998Z,1.70
2019-05-15T00:36:33.992Z,1.70
2019-05-15T00:37:33.975Z,2.00
2019-05-15T00:38:33.956Z,1.70
2019-05-15T00:39:33.954Z,1.70
2019-05-15T00:40:33.930Z,1.70
2019-05-15T00:41:46.649Z,1.40
2019-05-15T00:42:34.915Z,1.70
2019-05-15T00:43:33.905Z,2.00
2019-05-15T00:44:33.888Z,1.80
2019-05-15T00:45:33.890Z,1.70
2019-05-15T00:46:33.885Z,1.80
2019-05-15T00:47:33.857Z,1.60
2019-05-15T00:48:33.841Z,1.60
2019-05-15T00:49:33.833Z,1.50
2019-05-15T00:50:33.834Z,2.00
2019-05-15T00:51:33.826Z,1.60
2019-05-15T00:52:33.806Z,1.50
2019-05-15T00:53:33.789Z,1.80
2019-05-15T00:54:33.801Z,1.60
2019-05-15T00:55:33.767Z,1.60
2019-05-15T00:56:33.790Z,1.50
2019-05-15T00:57:33.749Z,1.60
2019-05-15T00:58:33.745Z,1.70
2019-05-15T00:59:33.720Z,1.80
2019-05-15T01:00:33.708Z,1.60
2019-05-15T01:01:33.716Z,1.80
2019-05-15T01:02:33.687Z,1.70
2019-05-15T01:03:33.671Z,1.50
2019-05-15T01:04:33.664Z,1.70
2019-05-15T01:05:33.653Z,1.80
2019-05-15T01:06:33.673Z,1.80
2019-05-15T01:07:33.642Z,1.70
2019-05-15T01:08:33.639Z,1.60
2019-05-15T01:09:33.610Z,1.70
2019-05-15T01:10:33.599Z,1.70
2019-05-15T01:11:33.592Z,1.90
2019-05-15T01:12:33.622Z,1.70
2019-05-15T01:13:33.564Z,1.70
2019-05-15T01:14:33.559Z,1.50
2019-05-15T01:15:33.545Z,2.10
2019-05-15T01:16:33.533Z,1.50
2019-05-15T01:17:33.537Z,1.70
2019-05-15T01:18:33.518Z,1.80
2019-05-15T01:19:33.502Z,1.70
2019-05-15T01:20:33.490Z,2.00
2019-05-15T01:21:33.486Z,1.80
2019-05-15T01:22:33.499Z,1.70
2019-05-15T01:23:33.464Z,1.50
2019-05-15T01:24:33.452Z,1.60
2019-05-15T01:25:33.443Z,1.70
2019-05-15T01:26:33.429Z,1.60
2019-05-15T01:27:33.412Z,1.70
2019-05-15T01:28:33.421Z,1.90
2019-05-15T01:29:41.868Z,1.90
2019-05-15T01:30:34.380Z,1.90
2019-05-15T01:31:33.377Z,1.50
2019-05-15T01:32:33.358Z,1.60
2019-05-15T01:33:33.401Z,1.70
2019-05-15T01:34:33.339Z,1.70
2019-05-15T01:35:33.340Z,1.70
2019-05-15T01:36:33.318Z,1.80
2019-05-15T01:37:33.314Z,1.50
2019-05-15T01:38:33.311Z,1.90
2019-05-15T01:39:33.292Z,1.70
2019-05-15T01:40:33.283Z,2.00
2019-05-15T01:41:33.260Z,1.90
2019-05-15T01:42:33.251Z,1.80
2019-05-15T01:43:33.255Z,1.90
2019-05-15T01:44:33.226Z,1.80
2019-05-15T01:45:33.219Z,1.90
2019-05-15T01:46:33.213Z,1.90
2019-05-15T01:47:33.199Z,1.80
2019-05-15T01:48:33.199Z,1.70
2019-05-15T01:49:33.176Z,2.00
2019-05-15T01:50:33.161Z,1.90
2019-05-15T01:51:33.157Z,1.70
2019-05-15T01:52:33.141Z,2.00
2019-05-15T01:53:33.149Z,2.00
2019-05-15T01:54:33.116Z,1.70
2019-05-15T01:55:33.115Z,2.00
2019-05-15T01:56:33.103Z,2.10
2019-05-15T01:57:33.087Z,1.90
2019-05-15T01:58:33.096Z,1.60
2019-05-15T01:59:33.094Z,2.30
2019-05-15T02:00:33.061Z,1.70
2019-05-15T02:01:33.104Z,1.80
2019-05-15T02:02:33.032Z,2.30
2019-05-15T02:03:33.021Z,2.00
2019-05-15T02:04:33.046Z,2.10
2019-05-15T02:05:32.997Z,1.80
2019-05-15T02:06:32.987Z,1.90
2019-05-15T02:07:32.978Z,1.90
2019-05-15T02:08:32.980Z,1.80
2019-05-15T02:09:32.998Z,2.00
2019-05-15T02:10:32.947Z,1.90
2019-05-15T02:11:32.962Z,1.70
2019-05-15T02:12:32.931Z,1.90
2019-05-15T02:13:32.929Z,1.90
2019-05-15T02:14:32.928Z,2.00
2019-05-15T02:15:32.900Z,1.90
2019-05-15T02:16:32.886Z,1.90
2019-05-15T02:17:32.880Z,1.90
2019-05-15T02:18:32.877Z,1.70
2019-05-15T02:19:32.886Z,2.00
2019-05-15T02:20:32.838Z,1.80
2019-05-15T02:21:32.828Z,1.80
2019-05-15T02:22:32.816Z,2.30
2019-05-15T02:23:32.803Z,1.70
2019-05-15T02:24:32.806Z,1.80
2019-05-15T02:25:32.776Z,1.90
2019-05-15T02:26:32.771Z,2.10
2019-05-15T02:27:32.756Z,1.80
2019-05-15T02:28:32.765Z,2.00
2019-05-15T02:29:32.750Z,1.70
2019-05-15T02:30:34.036Z,1.80
2019-05-15T02:31:32.712Z,2.20
2019-05-15T02:32:32.705Z,2.10
2019-05-15T02:33:32.702Z,1.90
2019-05-15T02:34:32.697Z,2.00
2019-05-15T02:35:32.705Z,2.00
2019-05-15T02:36:32.666Z,2.00
2019-05-15T02:37:32.650Z,2.10
2019-05-15T02:38:32.635Z,1.70
2019-05-15T02:39:32.652Z,1.80
2019-05-15T02:40:32.613Z,2.00
2019-05-15T02:41:32.613Z,1.90
2019-05-15T02:42:32.593Z,1.70
2019-05-15T02:43:32.584Z,1.80
2019-05-15T02:44:32.599Z,2.10
2019-05-15T02:45:36.459Z,2.00
2019-05-15T02:46:33.555Z,2.20
2019-05-15T02:47:32.557Z,2.00
2019-05-15T02:48:32.545Z,2.10
2019-05-15T02:49:32.513Z,2.00
2019-05-15T02:50:32.536Z,1.80
2019-05-15T02:51:32.513Z,1.90
2019-05-15T02:52:32.500Z,1.90
2019-05-15T02:53:32.477Z,1.90
2019-05-15T02:54:32.477Z,2.00
2019-05-15T02:55:32.481Z,2.20
2019-05-15T02:56:32.439Z,1.90
2019-05-15T02:57:32.429Z,2.10
2019-05-15T02:58:32.425Z,1.80
2019-05-15T02:59:32.417Z,1.80
2019-05-15T03:00:41.771Z,1.90
2019-05-15T03:01:33.407Z,2.00
2019-05-15T03:02:32.371Z,1.50
2019-05-15T03:03:32.362Z,1.70
2019-05-15T03:04:32.399Z,1.80
2019-05-15T03:05:32.359Z,1.50
2019-05-15T03:06:32.329Z,1.70
2019-05-15T03:07:32.320Z,1.80
2019-05-15T03:08:32.308Z,1.70
2019-05-15T03:09:32.292Z,1.90
2019-05-15T03:10:32.324Z,1.80
2019-05-15T03:11:32.287Z,1.90
2019-05-15T03:12:32.297Z,1.90
2019-05-15T03:13:32.258Z,1.90
2019-05-15T03:14:32.257Z,1.80
2019-05-15T03:15:32.254Z,1.80
2019-05-15T03:16:32.239Z,1.90
2019-05-15T03:17:32.231Z,1.90
2019-05-15T03:18:32.195Z,1.70
2019-05-15T03:19:32.200Z,1.70
2019-05-15T03:20:32.200Z,1.70
2019-05-15T03:21:32.198Z,2.00
2019-05-15T03:22:32.161Z,1.70
2019-05-15T03:23:32.140Z,1.70
2019-05-15T03:24:32.129Z,2.20
2019-05-15T03:25:32.122Z,2.00
2019-05-15T03:26:32.120Z,1.80
2019-05-15T03:27:34.766Z,1.70
2019-05-15T03:28:32.116Z,1.70
2019-05-15T03:29:32.088Z,1.80
2019-05-15T03:30:50.742Z,1.90
2019-05-15T03:31:50.370Z,2.00
2019-05-15T03:32:42.797Z,2.10
2019-05-15T03:33:36.694Z,1.80
2019-05-15T03:34:38.016Z,1.70
2019-05-15T03:35:33.481Z,1.80
2019-05-15T03:36:32.423Z,1.80
2019-05-15T03:37:33.969Z,1.70
2019-05-15T03:38:31.976Z,1.70
2019-05-15T03:39:31.974Z,1.90
2019-05-15T03:40:31.950Z,1.80
2019-05-15T03:41:31.956Z,1.70
2019-05-15T03:42:31.931Z,1.80
2019-05-15T03:43:31.927Z,1.90
2019-05-15T03:44:31.908Z,1.60
2019-05-15T03:45:31.909Z,2.10
2019-05-15T03:46:31.901Z,1.70
2019-05-15T03:47:31.879Z,1.60
2019-05-15T03:48:31.887Z,1.80
2019-05-15T03:49:31.864Z,1.80
2019-05-15T03:50:31.854Z,1.80
2019-05-15T03:51:31.855Z,1.80
2019-05-15T03:52:31.837Z,1.80
2019-05-15T03:53:31.810Z,1.80
2019-05-15T03:54:31.798Z,1.90
2019-05-15T03:55:31.786Z,1.80
2019-05-15T03:56:31.772Z,1.90
2019-05-15T03:57:31.801Z,1.70
2019-05-15T03:58:31.756Z,2.10
2019-05-15T03:59:31.745Z,1.80
2019-05-15T04:00:31.735Z,2.20
2019-05-15T04:01:38.435Z,2.00
2019-05-15T04:02:32.742Z,1.90
2019-05-15T04:03:31.712Z,1.90
2019-05-15T04:04:31.723Z,1.80
2019-05-15T04:05:31.684Z,1.80
2019-05-15T04:06:31.687Z,2.00
2019-05-15T04:07:31.693Z,1.90
2019-05-15T04:08:31.646Z,1.80
2019-05-15T04:09:31.642Z,1.80
2019-05-15T04:10:31.627Z,2.10
2019-05-15T04:11:31.611Z,1.90
2019-05-15T04:12:31.656Z,1.90
2019-05-15T04:13:31.612Z,2.20
2019-05-15T04:14:31.588Z,1.70
2019-05-15T04:15:31.570Z,2.10
2019-05-15T04:16:31.560Z,2.10
2019-05-15T04:17:31.564Z,1.80
2019-05-15T04:18:31.537Z,2.00
2019-05-15T04:19:31.519Z,1.60
2019-05-15T04:20:31.509Z,1.90
2019-05-15T04:21:31.513Z,2.00
2019-05-15T04:22:31.510Z,1.80
2019-05-15T04:23:31.494Z,2.00
2019-05-15T04:24:31.470Z,1.80
2019-05-15T04:25:31.458Z,1.70
2019-05-15T04:26:31.474Z,1.90
2019-05-15T04:27:31.458Z,1.90
2019-05-15T04:28:31.468Z,1.90
2019-05-15T04:29:31.411Z,1.70
2019-05-15T04:30:31.429Z,1.70
2019-05-15T04:31:49.834Z,2.00
2019-05-15T04:32:32.396Z,1.90
2019-05-15T04:33:31.381Z,2.00
2019-05-15T04:34:31.360Z,1.90
2019-05-15T04:35:31.359Z,1.80
2019-05-15T04:36:31.373Z,1.90
2019-05-15T04:37:31.321Z,2.10
2019-05-15T04:38:31.348Z,2.10
2019-05-15T04:39:31.296Z,1.60
2019-05-15T04:40:31.325Z,1.90
2019-05-15T04:41:31.287Z,2.10
2019-05-15T04:42:31.272Z,2.00
2019-05-15T04:43:39.769Z,1.70
2019-05-15T04:44:32.291Z,1.90
2019-05-15T04:45:34.919Z,1.60
2019-05-15T04:46:31.230Z,2.00
2019-05-15T04:47:31.222Z,2.10
2019-05-15T04:48:31.230Z,2.10
2019-05-15T04:49:31.226Z,1.80
2019-05-15T04:50:31.186Z,1.70
2019-05-15T04:51:31.166Z,1.80
2019-05-15T04:52:31.170Z,1.90
2019-05-15T04:53:33.326Z,1.90
2019-05-15T04:54:31.130Z,1.90
2019-05-15T04:55:31.179Z,2.10
2019-05-15T04:56:31.127Z,2.10
2019-05-15T04:57:34.086Z,2.10
2019-05-15T04:58:31.087Z,2.90
2019-05-15T04:59:31.093Z,3.20
2019-05-15T05:00:31.074Z,2.20
2019-05-15T05:01:31.065Z,2.20
2019-05-15T05:02:32.195Z,2.10
2019-05-15T05:03:34.409Z,1.90
2019-05-15T05:04:31.072Z,2.40
2019-05-15T05:05:31.025Z,1.90
2019-05-15T05:06:30.997Z,2.10
2019-05-15T05:07:31.000Z,1.90
2019-05-15T05:08:30.996Z,1.90
2019-05-15T05:09:30.974Z,2.10
2019-05-15T05:10:30.991Z,2.00
2019-05-15T05:11:30.963Z,2.00
2019-05-15T05:12:30.934Z,1.80
2019-05-15T05:13:30.934Z,2.20
2019-05-15T05:14:30.928Z,2.00
2019-05-15T05:15:30.917Z,2.00
2019-05-15T05:16:30.920Z,1.60
2019-05-15T05:17:30.877Z,2.00
2019-05-15T05:18:30.876Z,2.00
2019-05-15T05:19:30.870Z,2.00
2019-05-15T05:20:30.866Z,1.90
2019-05-15T05:21:30.835Z,2.00
2019-05-15T05:22:30.822Z,2.00
2019-05-15T05:23:30.833Z,1.90
2019-05-15T05:24:30.843Z,1.80
2019-05-15T05:25:30.788Z,1.80
2019-05-15T05:26:30.804Z,2.10
2019-05-15T05:27:30.770Z,1.80
2019-05-15T05:28:30.756Z,2.10
2019-05-15T05:29:30.783Z,1.90
2019-05-15T05:30:30.732Z,2.10
2019-05-15T05:31:30.752Z,2.00
2019-05-15T05:32:34.806Z,1.90
2019-05-15T05:33:30.699Z,2.10
2019-05-15T05:34:30.721Z,1.80
2019-05-15T05:35:30.699Z,2.00
2019-05-15T05:36:30.683Z,1.90
2019-05-15T05:37:30.675Z,1.80
2019-05-15T05:38:30.649Z,2.00
2019-05-15T05:39:30.671Z,2.00
2019-05-15T05:40:30.648Z,1.80
2019-05-15T05:41:30.627Z,2.10
2019-05-15T05:42:30.600Z,2.00
2019-05-15T05:43:30.602Z,2.20
2019-05-15T05:44:30.583Z,1.80
2019-05-15T05:45:30.594Z,2.20
2019-05-15T05:46:30.565Z,2.10
2019-05-15T05:47:30.554Z,2.20
2019-05-15T05:48:30.552Z,2.30
2019-05-15T05:49:30.537Z,2.00
2019-05-15T05:50:30.517Z,1.70
2019-05-15T05:51:30.521Z,1.80
2019-05-15T05:52:30.502Z,2.20
2019-05-15T05:53:30.482Z,2.30
2019-05-15T05:54:30.471Z,2.00
2019-05-15T05:55:30.465Z,1.80
2019-05-15T05:56:30.494Z,2.00
2019-05-15T05:57:30.439Z,2.00
2019-05-15T05:58:30.457Z,2.00
2019-05-15T05:59:30.415Z,1.70
2019-05-15T06:00:30.404Z,1.80
2019-05-15T06:01:30.415Z,1.80
2019-05-15T06:02:43.674Z,2.00
2019-05-15T06:03:31.368Z,1.80
2019-05-15T06:04:30.363Z,1.70
2019-05-15T06:05:30.375Z,1.70
2019-05-15T06:06:30.362Z,2.10
2019-05-15T06:07:30.346Z,2.00
2019-05-15T06:08:30.322Z,1.70
2019-05-15T06:09:30.327Z,1.80
2019-05-15T06:10:30.298Z,2.00
2019-05-15T06:11:30.307Z,2.30
2019-05-15T06:12:30.295Z,1.60
2019-05-15T06:13:30.262Z,1.70
2019-05-15T06:14:30.272Z,1.70
2019-05-15T06:15:30.242Z,1.80
2019-05-15T06:16:30.279Z,1.80
2019-05-15T06:17:30.217Z,1.90
2019-05-15T06:18:30.211Z,2.00
2019-05-15T06:19:31.461Z,1.80
2019-05-15T06:20:30.181Z,1.80
2019-05-15T06:21:30.187Z,1.90
2019-05-15T06:22:30.184Z,1.80
2019-05-15T06:23:34.632Z,1.80
2019-05-15T06:24:31.139Z,1.80
2019-05-15T06:25:30.648Z,1.90
2019-05-15T06:26:30.130Z,2.10
2019-05-15T06:27:30.105Z,1.80
2019-05-15T06:28:30.111Z,1.90
2019-05-15T06:29:30.085Z,1.90
2019-05-15T06:30:30.892Z,1.70
2019-05-15T06:31:30.083Z,1.60
2019-05-15T06:32:30.053Z,1.90
2019-05-15T06:33:30.044Z,1.80
2019-05-15T06:34:30.032Z,1.40
2019-05-15T06:35:31.287Z,1.90
2019-05-15T06:36:30.016Z,1.80
2019-05-15T06:37:30.014Z,1.80
2019-05-15T06:38:31.038Z,1.70
2019-05-15T06:39:29.972Z,1.90
2019-05-15T06:40:29.969Z,2.20
2019-05-15T06:41:29.952Z,1.80
2019-05-15T06:42:29.956Z,2.00
2019-05-15T06:43:29.943Z,1.70
2019-05-15T06:44:29.931Z,1.60
2019-05-15T06:45:29.911Z,1.70
2019-05-15T06:46:29.896Z,1.70
2019-05-15T06:47:29.917Z,1.60
2019-05-15T06:48:29.871Z,1.80
2019-05-15T06:49:29.867Z,1.70
2019-05-15T06:50:29.853Z,1.70
2019-05-15T06:51:29.841Z,1.50
2019-05-15T06:52:29.850Z,1.60
2019-05-15T06:53:29.828Z,1.40
2019-05-15T06:54:29.804Z,1.50
2019-05-15T06:55:29.801Z,1.50
2019-05-15T06:56:29.794Z,1.40
2019-05-15T06:57:29.771Z,1.60
2019-05-15T06:58:29.779Z,1.60
2019-05-15T06:59:29.751Z,1.50
2019-05-15T07:00:29.747Z,1.50
2019-05-15T07:01:29.729Z,2.20
2019-05-15T07:02:29.733Z,1.40
2019-05-15T07:03:29.750Z,1.60
2019-05-15T07:04:29.697Z,1.50
2019-05-15T07:05:29.694Z,1.60
2019-05-15T07:06:29.762Z,1.50
2019-05-15T07:07:29.703Z,1.70
2019-05-15T07:08:29.672Z,1.80
2019-05-15T07:09:29.645Z,1.30
2019-05-15T07:10:29.631Z,1.40
2019-05-15T07:11:29.622Z,1.40
2019-05-15T07:12:29.611Z,1.30
2019-05-15T07:13:29.656Z,1.60
2019-05-15T07:14:29.588Z,1.40
2019-05-15T07:15:29.575Z,1.40
2019-05-15T07:16:29.592Z,1.20
2019-05-15T07:17:29.566Z,1.40
2019-05-15T07:18:29.556Z,1.30
2019-05-15T07:19:29.584Z,1.50
2019-05-15T07:20:29.536Z,1.80
2019-05-15T07:21:29.521Z,1.50
2019-05-15T07:22:29.501Z,1.50
2019-05-15T07:23:30.695Z,1.10
2019-05-15T07:24:29.491Z,1.30
2019-05-15T07:25:29.529Z,1.30
2019-05-15T07:26:29.457Z,1.40
2019-05-15T07:27:29.462Z,1.30
2019-05-15T07:28:29.468Z,1.30
2019-05-15T07:29:29.423Z,1.20
2019-05-15T07:30:29.423Z,1.30
2019-05-15T07:31:29.429Z,1.40
2019-05-15T07:32:29.391Z,1.50
2019-05-15T07:33:39.634Z,1.30
2019-05-15T07:34:30.403Z,1.50
2019-05-15T07:35:29.363Z,1.30
2019-05-15T07:36:29.357Z,1.40
2019-05-15T07:37:29.360Z,1.40
2019-05-15T07:38:29.357Z,1.10
2019-05-15T07:39:29.331Z,1.20
2019-05-15T07:40:29.907Z,1.20
2019-05-15T07:41:29.299Z,1.40
2019-05-15T07:42:29.318Z,1.20
2019-05-15T07:43:29.267Z,1.40
2019-05-15T07:44:29.307Z,1.60
2019-05-15T07:45:29.272Z,1.20
2019-05-15T07:46:29.246Z,1.30
2019-05-15T07:47:29.437Z,1.20
2019-05-15T07:48:29.355Z,1.40
2019-05-15T07:49:29.220Z,1.10
2019-05-15T07:50:29.970Z,1.20
2019-05-15T07:51:29.181Z,1.20
2019-05-15T07:52:29.204Z,1.20
2019-05-15T07:53:29.174Z,1.20
2019-05-15T07:54:29.168Z,1.20
2019-05-15T07:55:29.727Z,1.20
2019-05-15T07:56:29.128Z,1.20
2019-05-15T07:57:29.942Z,1.30
2019-05-15T07:58:29.106Z,1.30
2019-05-15T07:59:29.127Z,1.70
2019-05-15T08:00:29.079Z,1.70
2019-05-15T08:01:29.266Z,1.30
2019-05-15T08:02:29.060Z,1.30
2019-05-15T08:03:29.385Z,1.30
2019-05-15T08:04:32.363Z,1.20
2019-05-15T08:05:29.047Z,1.30
2019-05-15T08:06:29.193Z,1.40
2019-05-15T08:07:29.004Z,1.30
2019-05-15T08:08:29.270Z,1.80
2019-05-15T08:09:28.999Z,1.20
2019-05-15T08:10:28.995Z,1.10
2019-05-15T08:11:28.957Z,1.40
2019-05-15T08:12:28.946Z,1.20
2019-05-15T08:13:29.071Z,1.60
2019-05-15T08:14:29.195Z,1.40
2019-05-15T08:15:28.935Z,1.30
2019-05-15T08:16:28.928Z,1.60
2019-05-15T08:17:29.140Z,1.30
2019-05-15T08:18:28.875Z,1.40
2019-05-15T08:19:29.031Z,1.70
2019-05-15T08:20:29.013Z,1.10
2019-05-15T08:21:29.329Z,1.10
2019-05-15T08:22:28.846Z,1.40
2019-05-15T08:23:28.899Z,1.30
2019-05-15T08:24:29.857Z,1.20
2019-05-15T08:25:35.103Z,1.50
2019-05-15T08:26:29.794Z,1.30
2019-05-15T08:27:29.911Z,1.40
2019-05-15T08:28:28.930Z,1.40
2019-05-15T08:29:28.930Z,1.40
2019-05-15T08:30:28.920Z,1.30
2019-05-15T08:31:28.994Z,1.30
2019-05-15T08:32:29.458Z,1.30
2019-05-15T08:33:28.765Z,1.30
2019-05-15T08:34:28.795Z,1.40
2019-05-15T08:35:29.267Z,1.30
2019-05-15T08:36:31.249Z,1.30
2019-05-15T08:37:29.267Z,1.40
2019-05-15T08:38:29.034Z,1.20
2019-05-15T08:39:28.688Z,1.40
2019-05-15T08:40:28.725Z,1.30
2019-05-15T08:41:29.576Z,1.30
2019-05-15T08:42:31.927Z,1.20
2019-05-15T08:43:31.230Z,1.30
2019-05-15T08:44:29.345Z,1.30
2019-05-15T08:45:28.715Z,1.50
2019-05-15T08:46:28.612Z,1.40
2019-05-15T08:47:29.740Z,1.40
2019-05-15T08:48:28.550Z,1.40
2019-05-15T08:49:28.543Z,1.50
2019-05-15T08:50:28.841Z,1.40
2019-05-15T08:51:28.541Z,1.40
2019-05-15T08:52:28.516Z,1.20
2019-05-15T08:53:28.892Z,1.40
2019-05-15T08:54:29.185Z,1.40
2019-05-15T08:55:28.483Z,1.30
2019-05-15T08:56:29.042Z,1.70
2019-05-15T08:57:28.956Z,1.40
2019-05-15T08:58:29.093Z,1.50
2019-05-15T08:59:29.481Z,1.40
2019-05-15T09:00:29.459Z,1.30
2019-05-15T09:01:28.885Z,1.80
2019-05-15T09:02:28.895Z,1.50
2019-05-15T09:03:28.737Z,1.30
2019-05-15T09:04:34.654Z,1.40
2019-05-15T09:05:29.364Z,1.60
2019-05-15T09:06:29.069Z,1.30
2019-05-15T09:07:28.733Z,1.70
2019-05-15T09:08:29.403Z,1.70
2019-05-15T09:09:28.761Z,1.50
2019-05-15T09:10:28.801Z,1.50
2019-05-15T09:11:28.479Z,1.60
2019-05-15T09:12:29.439Z,1.50
2019-05-15T09:13:29.238Z,1.40
2019-05-15T09:14:28.643Z,1.60
2019-05-15T09:15:29.333Z,1.70
2019-05-15T09:16:28.255Z,1.50
2019-05-15T09:17:28.673Z,1.70
2019-05-15T09:18:28.525Z,1.60
2019-05-15T09:19:28.253Z,1.90
2019-05-15T09:20:28.787Z,1.60
2019-05-15T09:21:28.434Z,1.50
2019-05-15T09:22:29.125Z,1.50
2019-05-15T09:23:28.927Z,1.50
2019-05-15T09:24:28.701Z,1.60
2019-05-15T09:25:28.757Z,1.70
2019-05-15T09:26:28.514Z,1.60
2019-05-15T09:27:28.276Z,1.70
2019-05-15T09:28:29.715Z,1.70
2019-05-15T09:29:28.546Z,1.30
2019-05-15T09:30:28.697Z,2.00
2019-05-15T09:31:28.601Z,1.60
2019-05-15T09:32:28.542Z,1.50
2019-05-15T09:33:28.730Z,1.60
2019-05-15T09:34:45.064Z,1.70
2019-05-15T09:35:29.029Z,1.70
2019-05-15T09:36:28.866Z,1.50
2019-05-15T09:37:28.739Z,1.80
2019-05-15T09:38:28.886Z,1.40
2019-05-15T09:39:28.668Z,1.60
2019-05-15T09:40:42.441Z,1.60
2019-05-15T09:41:28.977Z,1.60
2019-05-15T09:42:28.665Z,1.60
2019-05-15T09:43:28.583Z,1.50
2019-05-15T09:44:28.369Z,2.00
2019-05-15T09:45:28.657Z,1.60
2019-05-15T09:46:29.190Z,1.70
2019-05-15T09:47:29.677Z,1.70
2019-05-15T09:48:28.630Z,1.50
2019-05-15T09:49:28.563Z,1.60
2019-05-15T09:50:28.300Z,1.50
2019-05-15T09:51:28.996Z,1.50
2019-05-15T09:52:29.926Z,1.50
2019-05-15T09:53:28.565Z,1.70
2019-05-15T09:54:29.065Z,1.50
2019-05-15T09:55:28.488Z,1.40
2019-05-15T09:56:29.077Z,1.60
2019-05-15T09:57:30.205Z,1.30
2019-05-15T09:58:30.034Z,1.30
2019-05-15T09:59:28.246Z,1.50
2019-05-15T10:00:29.275Z,1.40
2019-05-15T10:01:28.473Z,1.60
2019-05-15T10:02:28.388Z,1.60
2019-05-15T10:03:28.266Z,1.50
2019-05-15T10:04:28.670Z,1.40
2019-05-15T10:05:28.084Z,1.70
2019-05-15T10:06:28.660Z,1.90
2019-05-15T10:07:28.554Z,1.30
2019-05-15T10:08:29.214Z,1.50
2019-05-15T10:09:28.475Z,1.40
2019-05-15T10:10:28.418Z,1.30
2019-05-15T10:11:28.891Z,1.30
2019-05-15T10:12:34.550Z,1.30
2019-05-15T10:13:28.986Z,1.20
2019-05-15T10:14:29.654Z,1.30
2019-05-15T10:15:27.612Z,1.60
2019-05-15T10:16:27.585Z,1.40
2019-05-15T10:17:29.132Z,1.30
2019-05-15T10:18:28.200Z,1.30
2019-05-15T10:19:29.008Z,1.20
2019-05-15T10:20:29.171Z,1.10
2019-05-15T10:21:32.151Z,1.30
2019-05-15T10:22:28.264Z,1.20
2019-05-15T10:23:29.166Z,1.40
2019-05-15T10:24:28.051Z,1.50
2019-05-15T10:25:28.149Z,1.30
2019-05-15T10:26:28.512Z,1.20
2019-05-15T10:27:28.736Z,1.40
2019-05-15T10:28:29.354Z,1.40
2019-05-15T10:29:28.141Z,1.30
2019-05-15T10:30:28.403Z,1.10
2019-05-15T10:31:28.332Z,1.30
2019-05-15T10:32:28.998Z,1.40
2019-05-15T10:33:29.574Z,1.50
2019-05-15T10:34:28.908Z,1.40
2019-05-15T10:35:31.081Z,1.70
2019-05-15T10:36:28.008Z,1.40
2019-05-15T10:37:28.492Z,1.40
2019-05-15T10:38:28.472Z,1.50
2019-05-15T10:39:28.778Z,1.40
2019-05-15T10:40:29.561Z,1.50
2019-05-15T10:41:28.185Z,1.40
2019-05-15T10:42:28.951Z,1.40
2019-05-15T10:43:28.754Z,1.50
2019-05-15T10:44:28.552Z,1.50
2019-05-15T10:45:29.535Z,1.40
2019-05-15T10:46:27.254Z,1.30
2019-05-15T10:47:29.022Z,1.30
2019-05-15T10:48:29.244Z,1.40
2019-05-15T10:49:28.190Z,1.20
2019-05-15T10:50:28.430Z,1.40
2019-05-15T10:51:28.630Z,1.00
2019-05-15T10:52:28.731Z,1.30
2019-05-15T10:53:29.641Z,1.40
2019-05-15T10:54:29.199Z,1.20
2019-05-15T10:55:28.872Z,1.10
2019-05-15T10:56:29.170Z,1.20
2019-05-15T10:57:28.101Z,1.40
2019-05-15T10:58:28.651Z,1.50
2019-05-15T10:59:27.674Z,1.20
2019-05-15T11:00:28.571Z,1.40
2019-05-15T11:01:27.079Z,1.40
2019-05-15T11:02:28.966Z,1.40
2019-05-15T11:03:29.621Z,1.40
2019-05-15T11:04:28.839Z,1.20
2019-05-15T11:05:40.723Z,1.50
2019-05-15T11:06:28.822Z,1.20
2019-05-15T11:07:28.475Z,1.30
2019-05-15T11:08:29.052Z,1.20
2019-05-15T11:09:28.676Z,1.60
2019-05-15T11:10:28.964Z,1.70
2019-05-15T11:11:26.971Z,1.40
2019-05-15T11:12:29.286Z,1.30
2019-05-15T11:13:28.849Z,1.50
2019-05-15T11:14:28.626Z,1.80
2019-05-15T11:15:29.049Z,1.70
2019-05-15T11:16:28.202Z,1.50
2019-05-15T11:17:28.736Z,1.50
2019-05-15T11:18:30.527Z,1.30
2019-05-15T11:19:35.738Z,1.20
2019-05-15T11:20:27.916Z,1.40
2019-05-15T11:21:26.859Z,1.60
2019-05-15T11:22:29.645Z,1.50
2019-05-15T11:23:29.166Z,1.40
2019-05-15T11:24:28.239Z,1.60
2019-05-15T11:25:29.921Z,1.30
2019-05-15T11:26:33.119Z,1.30
2019-05-15T11:27:27.956Z,1.20
2019-05-15T11:28:31.630Z,1.50
2019-05-15T11:29:27.770Z,1.40
2019-05-15T11:30:26.762Z,1.50
2019-05-15T11:31:28.663Z,1.50
2019-05-15T11:32:29.199Z,1.30
2019-05-15T11:33:29.142Z,1.40
2019-05-15T11:34:28.981Z,1.80
2019-05-15T11:35:28.499Z,1.50
2019-05-15T11:36:28.760Z,1.50
2019-05-15T11:37:28.289Z,1.10
2019-05-15T11:38:28.909Z,1.50
2019-05-15T11:39:28.802Z,1.60
2019-05-15T11:40:28.389Z,1.50
2019-05-15T11:41:29.226Z,1.40
2019-05-15T11:42:28.866Z,1.70
2019-05-15T11:43:29.224Z,1.40
2019-05-15T11:44:28.265Z,1.10
2019-05-15T11:45:28.925Z,1.30
2019-05-15T11:46:29.011Z,1.10
2019-05-15T11:47:27.860Z,1.40
2019-05-15T11:48:29.573Z,1.40
2019-05-15T11:49:28.845Z,1.70
2019-05-15T11:50:29.336Z,1.50
2019-05-15T11:51:28.877Z,1.20
2019-05-15T11:52:29.214Z,1.20
2019-05-15T11:53:28.454Z,1.40
2019-05-15T11:54:28.327Z,1.30
2019-05-15T11:55:29.037Z,1.40
2019-05-15T11:56:29.335Z,1.30
2019-05-15T11:57:39.605Z,1.20
2019-05-15T11:58:28.194Z,1.40
2019-05-15T11:59:26.446Z,1.40
2019-05-15T12:00:30.003Z,1.20
2019-05-15T12:01:28.637Z,1.40
2019-05-15T12:02:29.154Z,1.30
2019-05-15T12:03:28.852Z,1.10
2019-05-15T12:04:31.133Z,1.10
2019-05-15T12:05:28.792Z,1.40
2019-05-15T12:06:28.630Z,1.20
2019-05-15T12:07:28.864Z,1.50
2019-05-15T12:08:29.055Z,1.30
2019-05-15T12:09:28.227Z,1.10
2019-05-15T12:10:28.718Z,1.10
2019-05-15T12:11:33.395Z,1.30
2019-05-15T12:12:31.751Z,1.30
2019-05-15T12:13:27.997Z,1.60
2019-05-15T12:14:29.431Z,1.40
2019-05-15T12:15:27.956Z,1.30
2019-05-15T12:16:28.806Z,1.20
2019-05-15T12:17:28.453Z,1.20
2019-05-15T12:18:28.422Z,1.20
2019-05-15T12:19:29.193Z,1.20
2019-05-15T12:20:28.577Z,1.10
2019-05-15T12:21:28.521Z,1.20
2019-05-15T12:22:28.773Z,1.30
2019-05-15T12:23:28.860Z,1.70
2019-05-15T12:24:32.865Z,1.20
2019-05-15T12:25:31.444Z,1.30
2019-05-15T12:26:28.932Z,1.30
2019-05-15T12:27:28.269Z,1.30
2019-05-15T12:28:29.284Z,1.50
2019-05-15T12:29:28.576Z,1.30
2019-05-15T12:30:29.408Z,1.50
2019-05-15T12:31:26.085Z,2.00
2019-05-15T12:33:28.978Z,1.10
2019-05-15T12:34:28.778Z,1.20
2019-05-15T12:35:26.044Z,1.20
2019-05-15T12:36:50.154Z,1.10
2019-05-15T12:37:28.490Z,1.00
2019-05-15T12:38:28.604Z,1.20
2019-05-15T12:39:29.527Z,1.00
2019-05-15T12:59:44.632Z,1.30
2019-05-15T13:00:29.670Z,1.20
2019-05-15T13:01:25.768Z,1.10
2019-05-15T13:02:27.894Z,1.10
2019-05-15T13:03:25.774Z,1.20
2019-05-15T13:04:28.291Z,1.10
2019-05-15T13:05:28.539Z,1.30
2019-05-15T13:06:28.332Z,1.20
2019-05-15T13:07:25.682Z,1.40
2019-05-15T13:08:25.716Z,1.40
2019-05-15T13:09:27.605Z,1.30
2019-05-15T13:10:25.666Z,1.10
2019-05-15T13:11:25.643Z,1.10
2019-05-15T13:12:25.646Z,1.00
2019-05-15T13:13:25.633Z,1.00
2019-05-15T13:14:28.195Z,1.20
2019-05-15T13:15:28.061Z,1.10
2019-05-15T13:16:28.006Z,1.10
2019-05-15T13:17:25.572Z,1.10
2019-05-15T13:18:25.586Z,1.10
2019-05-15T13:19:28.264Z,1.40
2019-05-15T13:20:25.592Z,1.30
2019-05-15T13:21:25.532Z,1.20
2019-05-15T13:22:25.533Z,1.20
2019-05-15T13:23:25.527Z,1.20
2019-05-15T13:24:28.150Z,1.30
2019-05-15T13:25:27.862Z,1.00
2019-05-15T13:26:27.054Z,1.20
2019-05-15T13:27:25.539Z,1.20
2019-05-15T13:28:25.454Z,1.00
2019-05-15T13:29:25.466Z,1.20
2019-05-15T13:30:25.433Z,1.20
2019-05-15T13:31:25.439Z,1.30
2019-05-15T13:32:28.307Z,1.30
2019-05-15T13:33:25.396Z,1.20
2019-05-15T13:34:25.418Z,1.00
2019-05-15T13:35:25.378Z,1.20
2019-05-15T13:36:25.366Z,1.10
2019-05-15T13:37:28.135Z,0.90
2019-05-15T13:38:28.579Z,1.20